sensor_id;sensor_type;location;lat;lon;timestamp;pressure;altitude;pressure_sealevel;temperature;humidity
57827;BME280;43656;57.746;11.780;2022-09-27T00:00:44;99071.19;;;11.55;100.00
57827;BME280;43656;57.746;11.780;2022-09-27T00:03:10;99054.97;;;11.50;100.00
57827;BME280;43656;57.746;11.780;2022-09-27T00:05:36;99058.53;;;11.56;100.00
57827;BME280;43656;57.746;11.780;2022-09-27T00:08:01;99075.09;;;11.64;100.00
57827;BME280;43656;57.746;11.780;2022-09-27T00:10:27;99073.47;;;11.63;100.00
57827;BME280;43656;57.746;11.780;2022-09-27T00:12:54;99069.69;;;11.64;100.00
57827;BME280;43656;57.746;11.780;2022-09-27T00:15:19;99058.78;;;11.54;100.00
57827;BME280;43656;57.746;11.780;2022-09-27T00:17:45;99037.66;;;11.46;100.00
57827;BME280;43656;57.746;11.780;2022-09-27T00:20:17;99041.66;;;11.43;100.00
57827;BME280;43656;57.746;11.780;2022-09-27T00:22:43;99074.28;;;11.64;100.00
57827;BME280;43656;57.746;11.780;2022-09-27T00:25:08;99071.56;;;11.64;100.00
57827;BME280;43656;57.746;11.780;2022-09-27T00:27:33;99068.56;;;11.60;100.00
57827;BME280;43656;57.746;11.780;2022-09-27T00:29:59;99053.16;;;11.56;100.00
57827;BME280;43656;57.746;11.780;2022-09-27T00:32:24;99067.19;;;11.58;100.00
57827;BME280;43656;57.746;11.780;2022-09-27T00:34:49;99057.38;;;11.51;100.00
57827;BME280;43656;57.746;11.780;2022-09-27T00:37:15;99040.91;;;11.48;100.00
57827;BME280;43656;57.746;11.780;2022-09-27T00:39:40;99055.00;;;11.55;100.00
57827;BME280;43656;57.746;11.780;2022-09-27T00:42:10;99066.84;;;11.54;100.00
57827;BME280;43656;57.746;11.780;2022-09-27T00:49:57;99064.00;;;11.61;100.00
57827;BME280;43656;57.746;11.780;2022-09-27T00:52:29;99029.81;;;11.44;100.00
57827;BME280;43656;57.746;11.780;2022-09-27T00:55:11;99039.34;;;11.52;100.00
57827;BME280;43656;57.746;11.780;2022-09-27T00:57:40;99028.44;;;11.42;100.00
57827;BME280;43656;57.746;11.780;2022-09-27T01:00:09;99052.63;;;11.59;100.00
57827;BME280;43656;57.746;11.780;2022-09-27T01:02:37;98965.75;;;11.08;100.00
57827;BME280;43656;57.746;11.780;2022-09-27T01:05:05;99042.88;;;11.52;100.00
57827;BME280;43656;57.746;11.780;2022-09-27T01:07:32;99036.91;;;11.50;100.00
57827;BME280;43656;57.746;11.780;2022-09-27T01:09:59;99058.38;;;11.62;100.00
57827;BME280;43656;57.746;11.780;2022-09-27T01:12:55;99050.28;;;11.62;100.00
57827;BME280;43656;57.746;11.780;2022-09-27T01:15:52;99047.44;;;11.52;100.00
57827;BME280;43656;57.746;11.780;2022-09-27T01:18:32;99046.44;;;11.58;100.00
57827;BME280;43656;57.746;11.780;2022-09-27T01:21:22;99049.72;;;11.60;100.00
57827;BME280;43656;57.746;11.780;2022-09-27T01:32:46;99046.13;;;11.55;100.00
57827;BME280;43656;57.746;11.780;2022-09-27T01:35:24;99032.09;;;11.52;100.00
57827;BME280;43656;57.746;11.780;2022-09-27T01:41:01;99038.94;;;11.60;100.00
57827;BME280;43656;57.746;11.780;2022-09-27T01:43:37;99028.84;;;11.50;100.00
57827;BME280;43656;57.746;11.780;2022-09-27T01:46:08;99037.22;;;11.54;100.00
57827;BME280;43656;57.746;11.780;2022-09-27T01:48:40;99037.41;;;11.47;100.00
57827;BME280;43656;57.746;11.780;2022-09-27T01:51:16;99054.03;;;11.61;100.00
57827;BME280;43656;57.746;11.780;2022-09-27T01:53:46;99045.25;;;11.49;100.00
57827;BME280;43656;57.746;11.780;2022-09-27T01:56:16;99058.03;;;11.59;100.00
57827;BME280;43656;57.746;11.780;2022-09-27T01:58:52;99042.63;;;11.54;100.00
57827;BME280;43656;57.746;11.780;2022-09-27T02:01:20;99038.41;;;11.41;100.00
57827;BME280;43656;57.746;11.780;2022-09-27T02:03:49;98995.84;;;11.21;100.00
57827;BME280;43656;57.746;11.780;2022-09-27T02:06:20;99036.03;;;11.45;100.00
57827;BME280;43656;57.746;11.780;2022-09-27T02:09:03;99058.91;;;11.64;100.00
57827;BME280;43656;57.746;11.780;2022-09-27T02:11:30;99052.63;;;11.59;100.00
57827;BME280;43656;57.746;11.780;2022-09-27T02:14:02;99064.88;;;11.66;100.00
57827;BME280;43656;57.746;11.780;2022-09-27T02:16:53;99057.84;;;11.65;100.00
57827;BME280;43656;57.746;11.780;2022-09-27T02:19:34;99065.38;;;11.63;100.00
57827;BME280;43656;57.746;11.780;2022-09-27T02:22:37;99067.50;;;11.61;100.00
57827;BME280;43656;57.746;11.780;2022-09-27T02:31:19;99063.22;;;11.65;100.00
57827;BME280;43656;57.746;11.780;2022-09-27T02:33:52;99058.38;;;11.62;100.00
57827;BME280;43656;57.746;11.780;2022-09-27T02:36:20;99050.69;;;11.54;100.00
57827;BME280;43656;57.746;11.780;2022-09-27T02:38:46;99071.88;;;11.67;100.00
57827;BME280;43656;57.746;11.780;2022-09-27T02:41:16;99072.97;;;11.66;100.00
57827;BME280;43656;57.746;11.780;2022-09-27T02:43:45;99068.38;;;11.67;100.00
57827;BME280;43656;57.746;11.780;2022-09-27T02:52:12;99064.75;;;11.56;100.00
57827;BME280;43656;57.746;11.780;2022-09-27T02:54:52;99053.00;;;11.45;100.00
57827;BME280;43656;57.746;11.780;2022-09-27T03:00:03;99061.47;;;11.54;100.00
57827;BME280;43656;57.746;11.780;2022-09-27T03:05:42;99069.97;;;11.63;100.00
57827;BME280;43656;57.746;11.780;2022-09-27T03:08:10;99082.09;;;11.65;100.00
57827;BME280;43656;57.746;11.780;2022-09-27T03:10:36;99069.97;;;11.63;100.00
57827;BME280;43656;57.746;11.780;2022-09-27T03:13:03;99037.91;;;11.44;100.00
57827;BME280;43656;57.746;11.780;2022-09-27T03:15:29;99059.59;;;11.55;100.00
57827;BME280;43656;57.746;11.780;2022-09-27T03:17:55;99003.09;;;11.21;100.00
57827;BME280;43656;57.746;11.780;2022-09-27T03:20:21;99077.13;;;11.57;100.00
57827;BME280;43656;57.746;11.780;2022-09-27T03:22:47;99050.38;;;11.50;100.00
57827;BME280;43656;57.746;11.780;2022-09-27T03:25:13;99057.38;;;11.51;100.00
57827;BME280;43656;57.746;11.780;2022-09-27T03:27:38;99073.13;;;11.60;100.00
57827;BME280;43656;57.746;11.780;2022-09-27T03:30:05;99057.16;;;11.53;100.00
57827;BME280;43656;57.746;11.780;2022-09-27T03:32:31;99056.34;;;11.52;100.00
57827;BME280;43656;57.746;11.780;2022-09-27T03:34:57;99076.38;;;11.62;100.00
57827;BME280;43656;57.746;11.780;2022-09-27T03:37:22;99069.31;;;11.56;100.00
57827;BME280;43656;57.746;11.780;2022-09-27T03:39:47;99054.28;;;11.60;100.00
57827;BME280;43656;57.746;11.780;2022-09-27T03:42:13;99066.44;;;11.62;100.00
57827;BME280;43656;57.746;11.780;2022-09-27T03:44:39;99069.69;;;11.64;100.00
57827;BME280;43656;57.746;11.780;2022-09-27T03:47:05;99019.72;;;11.35;100.00
57827;BME280;43656;57.746;11.780;2022-09-27T03:49:30;99071.88;;;11.67;100.00
57827;BME280;43656;57.746;11.780;2022-09-27T03:51:57;99049.25;;;11.46;100.00
57827;BME280;43656;57.746;11.780;2022-09-27T03:54:22;99066.19;;;11.64;100.00
57827;BME280;43656;57.746;11.780;2022-09-27T03:56:48;99068.56;;;11.60;100.00
57827;BME280;43656;57.746;11.780;2022-09-27T03:59:13;99057.88;;;11.48;100.00
57827;BME280;43656;57.746;11.780;2022-09-27T04:01:38;99066.63;;;11.56;100.00
57827;BME280;43656;57.746;11.780;2022-09-27T04:04:04;99060.97;;;11.57;100.00
57827;BME280;43656;57.746;11.780;2022-09-27T04:06:30;99028.28;;;11.32;100.00
57827;BME280;43656;57.746;11.780;2022-09-27T04:08:55;99074.53;;;11.62;100.00
57827;BME280;43656;57.746;11.780;2022-09-27T04:11:23;99067.94;;;11.53;100.00
57827;BME280;43656;57.746;11.780;2022-09-27T04:13:48;99068.47;;;11.55;100.00
57827;BME280;43656;57.746;11.780;2022-09-27T04:16:14;99032.97;;;11.19;100.00
57827;BME280;43656;57.746;11.780;2022-09-27T04:18:40;99072.75;;;11.51;100.00
57827;BME280;43656;57.746;11.780;2022-09-27T04:21:06;99075.13;;;11.47;100.00
57827;BME280;43656;57.746;11.780;2022-09-27T04:23:31;99074.34;;;11.52;100.00
57827;BME280;43656;57.746;11.780;2022-09-27T04:25:57;99055.44;;;11.47;100.00
57827;BME280;43656;57.746;11.780;2022-09-27T04:28:23;99041.25;;;11.35;100.00
57827;BME280;43656;57.746;11.780;2022-09-27T04:30:48;99035.25;;;11.27;100.00
57827;BME280;43656;57.746;11.780;2022-09-27T04:33:13;99070.53;;;11.48;100.00
57827;BME280;43656;57.746;11.780;2022-09-27T04:35:39;99078.22;;;11.56;100.00
57827;BME280;43656;57.746;11.780;2022-09-27T04:38:23;99078.13;;;11.51;100.00
57827;BME280;43656;57.746;11.780;2022-09-27T04:40:49;99082.53;;;11.57;100.00
57827;BME280;43656;57.746;11.780;2022-09-27T04:43:15;99039.81;;;11.27;100.00
57827;BME280;43656;57.746;11.780;2022-09-27T04:45:43;99085.22;;;11.57;100.00
57827;BME280;43656;57.746;11.780;2022-09-27T04:48:09;99057.41;;;11.35;100.00
57827;BME280;43656;57.746;11.780;2022-09-27T04:50:57;99084.97;;;11.59;100.00
57827;BME280;43656;57.746;11.780;2022-09-27T04:53:28;99084.16;;;11.58;100.00
57827;BME280;43656;57.746;11.780;2022-09-27T04:56:14;99083.03;;;11.54;100.00
57827;BME280;43656;57.746;11.780;2022-09-27T04:58:40;99079.78;;;11.35;100.00
57827;BME280;43656;57.746;11.780;2022-09-27T05:01:06;99092.19;;;11.53;100.00
57827;BME280;43656;57.746;11.780;2022-09-27T05:03:33;99087.41;;;11.60;100.00
57827;BME280;43656;57.746;11.780;2022-09-27T05:06:18;99086.13;;;11.63;100.00
57827;BME280;43656;57.746;11.780;2022-09-27T05:08:43;98953.75;;;10.76;100.00
57827;BME280;43656;57.746;11.780;2022-09-27T05:11:10;98978.59;;;10.84;100.00
57827;BME280;43656;57.746;11.780;2022-09-27T05:13:36;98884.84;;;10.25;100.00
57827;BME280;43656;57.746;11.780;2022-09-27T05:16:04;98962.69;;;10.65;100.00
57827;BME280;43656;57.746;11.780;2022-09-27T05:18:31;98959.63;;;10.73;100.00
57827;BME280;43656;57.746;11.780;2022-09-27T05:21:01;98972.97;;;10.68;100.00
57827;BME280;43656;57.746;11.780;2022-09-27T05:23:27;98925.84;;;10.32;100.00
57827;BME280;43656;57.746;11.780;2022-09-27T05:25:55;99002.16;;;10.93;100.00
57827;BME280;43656;57.746;11.780;2022-09-27T05:28:22;98920.66;;;10.42;100.00
57827;BME280;43656;57.746;11.780;2022-09-27T05:31:07;99115.81;;;11.68;100.00
57827;BME280;43656;57.746;11.780;2022-09-27T05:33:32;99100.88;;;11.60;100.00
57827;BME280;43656;57.746;11.780;2022-09-27T05:35:58;98976.22;;;10.87;100.00
57827;BME280;43656;57.746;11.780;2022-09-27T05:38:24;98938.81;;;10.52;100.00
57827;BME280;43656;57.746;11.780;2022-09-27T05:40:50;98888.47;;;10.30;100.00
57827;BME280;43656;57.746;11.780;2022-09-27T05:43:19;98891.16;;;10.30;100.00
57827;BME280;43656;57.746;11.780;2022-09-27T05:45:46;98894.34;;;10.27;100.00
57827;BME280;43656;57.746;11.780;2022-09-27T05:48:12;99129.69;;;11.76;100.00
57827;BME280;43656;57.746;11.780;2022-09-27T05:50:39;98998.56;;;11.04;100.00
57827;BME280;43656;57.746;11.780;2022-09-27T05:53:05;99048.31;;;11.36;100.00
57827;BME280;43656;57.746;11.780;2022-09-27T05:55:30;99137.44;;;11.90;100.00
57827;BME280;43656;57.746;11.780;2022-09-27T05:58:05;99050.63;;;11.49;100.00
57827;BME280;43656;57.746;11.780;2022-09-27T06:00:32;99135.13;;;11.98;100.00
57827;BME280;43656;57.746;11.780;2022-09-27T06:02:59;99112.88;;;11.86;100.00
57827;BME280;43656;57.746;11.780;2022-09-27T06:05:27;99134.56;;;11.96;100.00
57827;BME280;43656;57.746;11.780;2022-09-27T06:07:59;99124.59;;;11.97;100.00
57827;BME280;43656;57.746;11.780;2022-09-27T06:10:25;99142.16;;;11.99;100.00
57827;BME280;43656;57.746;11.780;2022-09-27T06:12:50;99111.22;;;11.85;100.00
57827;BME280;43656;57.746;11.780;2022-09-27T06:15:17;99131.31;;;11.94;100.00
57827;BME280;43656;57.746;11.780;2022-09-27T06:17:43;99141.84;;;11.96;100.00
57827;BME280;43656;57.746;11.780;2022-09-27T06:20:08;99139.22;;;12.01;100.00
57827;BME280;43656;57.746;11.780;2022-09-27T06:22:34;99138.41;;;12.01;100.00
57827;BME280;43656;57.746;11.780;2022-09-27T06:25:01;99126.72;;;11.95;100.00
57827;BME280;43656;57.746;11.780;2022-09-27T06:27:29;99149.31;;;12.11;100.00
57827;BME280;43656;57.746;11.780;2022-09-27T06:29:54;99148.25;;;12.12;100.00
57827;BME280;43656;57.746;11.780;2022-09-27T06:32:20;99133.75;;;11.96;100.00
57827;BME280;43656;57.746;11.780;2022-09-27T06:34:46;99158.22;;;12.11;100.00
57827;BME280;43656;57.746;11.780;2022-09-27T06:37:11;99164.41;;;12.12;100.00
57827;BME280;43656;57.746;11.780;2022-09-27T06:39:37;99133.75;;;11.96;100.00
57827;BME280;43656;57.746;11.780;2022-09-27T06:42:02;99121.78;;;11.87;100.00
57827;BME280;43656;57.746;11.780;2022-09-27T06:44:27;99162.97;;;12.04;100.00
57827;BME280;43656;57.746;11.780;2022-09-27T06:46:53;99153.09;;;12.10;100.00
57827;BME280;43656;57.746;11.780;2022-09-27T06:49:20;99146.31;;;12.07;100.00
57827;BME280;43656;57.746;11.780;2022-09-27T06:51:49;99161.66;;;12.07;100.00
57827;BME280;43656;57.746;11.780;2022-09-27T06:54:15;99170.56;;;12.07;100.00
57827;BME280;43656;57.746;11.780;2022-09-27T06:56:40;99168.84;;;12.01;100.00
57827;BME280;43656;57.746;11.780;2022-09-27T06:59:06;99167.88;;;12.07;100.00
57827;BME280;43656;57.746;11.780;2022-09-27T07:01:51;99170.66;;;12.12;100.00
57827;BME280;43656;57.746;11.780;2022-09-27T07:04:17;99159.56;;;12.09;100.00
57827;BME280;43656;57.746;11.780;2022-09-27T07:06:43;99172.44;;;12.07;100.00
57827;BME280;43656;57.746;11.780;2022-09-27T07:09:08;99164.47;;;11.95;100.00
57827;BME280;43656;57.746;11.780;2022-09-27T07:11:35;99173.91;;;12.14;100.00
57827;BME280;43656;57.746;11.780;2022-09-27T07:14:07;99160.84;;;12.06;100.00
57827;BME280;43656;57.746;11.780;2022-09-27T07:16:34;99175.88;;;12.19;100.00
57827;BME280;43656;57.746;11.780;2022-09-27T07:18:59;99160.34;;;12.09;100.00
57827;BME280;43656;57.746;11.780;2022-09-27T07:21:25;99177.72;;;12.18;100.00
57827;BME280;43656;57.746;11.780;2022-09-27T07:23:51;99179.38;;;12.19;100.00
57827;BME280;43656;57.746;11.780;2022-09-27T07:26:16;99180.63;;;12.34;100.00
57827;BME280;43656;57.746;11.780;2022-09-27T07:28:41;99180.13;;;12.37;100.00
57827;BME280;43656;57.746;11.780;2022-09-27T07:31:07;99185.59;;;12.42;100.00
57827;BME280;43656;57.746;11.780;2022-09-27T07:33:33;99181.44;;;12.34;100.00
57827;BME280;43656;57.746;11.780;2022-09-27T07:35:59;99180.38;;;12.13;100.00
57827;BME280;43656;57.746;11.780;2022-09-27T07:38:25;99196.50;;;12.52;100.00
57827;BME280;43656;57.746;11.780;2022-09-27T07:40:50;99194.25;;;12.44;100.00
57827;BME280;43656;57.746;11.780;2022-09-27T07:43:16;99183.75;;;12.48;100.00
57827;BME280;43656;57.746;11.780;2022-09-27T07:45:41;99207.53;;;12.73;100.00
57827;BME280;43656;57.746;11.780;2022-09-27T07:48:09;99198.69;;;12.77;100.00
57827;BME280;43656;57.746;11.780;2022-09-27T07:50:36;99211.44;;;12.82;100.00
57827;BME280;43656;57.746;11.780;2022-09-27T07:53:02;99181.16;;;12.80;100.00
57827;BME280;43656;57.746;11.780;2022-09-27T07:55:29;99219.13;;;12.95;100.00
57827;BME280;43656;57.746;11.780;2022-09-27T07:58:03;99209.34;;;12.89;100.00
57827;BME280;43656;57.746;11.780;2022-09-27T08:00:29;99220.00;;;13.01;100.00
57827;BME280;43656;57.746;11.780;2022-09-27T08:02:54;99219.38;;;13.21;100.00
57827;BME280;43656;57.746;11.780;2022-09-27T08:05:19;99229.78;;;13.29;100.00
57827;BME280;43656;57.746;11.780;2022-09-27T08:07:45;99220.06;;;13.28;100.00
57827;BME280;43656;57.746;11.780;2022-09-27T08:10:10;99234.97;;;13.35;100.00
57827;BME280;43656;57.746;11.780;2022-09-27T08:12:37;99222.78;;;13.33;100.00
57827;BME280;43656;57.746;11.780;2022-09-27T08:15:03;99221.03;;;13.49;100.00
57827;BME280;43656;57.746;11.780;2022-09-27T08:17:30;99186.16;;;13.20;100.00
57827;BME280;43656;57.746;11.780;2022-09-27T08:19:56;99228.34;;;13.48;100.00
57827;BME280;43656;57.746;11.780;2022-09-27T08:22:43;99221.38;;;13.57;100.00
57827;BME280;43656;57.746;11.780;2022-09-27T08:25:28;99244.16;;;13.67;100.00
57827;BME280;43656;57.746;11.780;2022-09-27T08:28:00;99236.09;;;13.72;100.00
57827;BME280;43656;57.746;11.780;2022-09-27T08:30:27;99201.41;;;13.58;100.00
57827;BME280;43656;57.746;11.780;2022-09-27T08:32:56;99237.34;;;13.91;100.00
57827;BME280;43656;57.746;11.780;2022-09-27T08:35:21;99228.59;;;13.84;100.00
57827;BME280;43656;57.746;11.780;2022-09-27T08:37:58;99237.28;;;13.86;100.00
57827;BME280;43656;57.746;11.780;2022-09-27T08:40:30;99196.31;;;13.67;100.00
57827;BME280;43656;57.746;11.780;2022-09-27T08:43:05;99243.88;;;14.00;100.00
57827;BME280;43656;57.746;11.780;2022-09-27T08:45:45;99224.47;;;13.71;100.00
57827;BME280;43656;57.746;11.780;2022-09-27T08:48:18;99237.25;;;13.81;100.00
57827;BME280;43656;57.746;11.780;2022-09-27T08:50:45;99253.66;;;14.06;100.00
57827;BME280;43656;57.746;11.780;2022-09-27T08:53:22;99215.19;;;13.94;100.00
57827;BME280;43656;57.746;11.780;2022-09-27T08:55:52;99236.09;;;14.04;100.00
57827;BME280;43656;57.746;11.780;2022-09-27T08:58:38;99248.47;;;14.00;100.00
57827;BME280;43656;57.746;11.780;2022-09-27T09:01:11;99179.00;;;13.63;100.00
57827;BME280;43656;57.746;11.780;2022-09-27T09:03:42;99174.75;;;13.72;100.00
57827;BME280;43656;57.746;11.780;2022-09-27T09:06:14;99249.50;;;14.31;100.00
57827;BME280;43656;57.746;11.780;2022-09-27T09:08:53;99222.56;;;14.09;100.00
57827;BME280;43656;57.746;11.780;2022-09-27T09:29:15;99250.72;;;14.50;100.00
57827;BME280;43656;57.746;11.780;2022-09-27T09:31:56;99252.47;;;14.77;100.00
57827;BME280;43656;57.746;11.780;2022-09-27T09:34:47;99252.75;;;14.80;100.00
57827;BME280;43656;57.746;11.780;2022-09-27T09:37:23;99219.50;;;14.38;100.00
57827;BME280;43656;57.746;11.780;2022-09-27T09:40:04;99256.81;;;14.78;100.00
57827;BME280;43656;57.746;11.780;2022-09-27T09:42:47;99202.84;;;14.61;100.00
57827;BME280;43656;57.746;11.780;2022-09-27T09:45:28;99251.75;;;15.12;100.00
57827;BME280;43656;57.746;11.780;2022-09-27T09:50:42;99255.03;;;15.19;100.00
57827;BME280;43656;57.746;11.780;2022-09-27T09:55:54;99251.53;;;15.24;100.00
57827;BME280;43656;57.746;11.780;2022-09-27T09:58:35;99259.06;;;15.12;100.00
57827;BME280;43656;57.746;11.780;2022-09-27T10:01:18;99248.00;;;15.28;100.00
57827;BME280;43656;57.746;11.780;2022-09-27T10:03:45;99228.50;;;15.26;100.00
57827;BME280;43656;57.746;11.780;2022-09-27T10:06:12;99253.75;;;15.47;100.00
57827;BME280;43656;57.746;11.780;2022-09-27T10:08:40;99248.84;;;15.39;100.00
57827;BME280;43656;57.746;11.780;2022-09-27T10:11:06;99245.63;;;15.58;100.00
57827;BME280;43656;57.746;11.780;2022-09-27T10:13:34;99220.66;;;15.40;100.00
57827;BME280;43656;57.746;11.780;2022-09-27T10:16:06;99249.94;;;15.43;100.00
57827;BME280;43656;57.746;11.780;2022-09-27T10:18:35;99220.91;;;15.39;100.00
57827;BME280;43656;57.746;11.780;2022-09-27T10:21:06;99248.59;;;15.61;100.00
57827;BME280;43656;57.746;11.780;2022-09-27T10:23:35;99258.94;;;15.69;100.00
57827;BME280;43656;57.746;11.780;2022-09-27T10:26:03;99255.63;;;15.52;100.00
57827;BME280;43656;57.746;11.780;2022-09-27T10:28:41;99246.97;;;15.55;100.00
57827;BME280;43656;57.746;11.780;2022-09-27T10:31:34;99226.06;;;15.25;100.00
57827;BME280;43656;57.746;11.780;2022-09-27T10:34:03;99195.66;;;15.02;100.00
57827;BME280;43656;57.746;11.780;2022-09-27T10:36:32;99264.09;;;15.71;100.00
57827;BME280;43656;57.746;11.780;2022-09-27T10:39:00;99238.50;;;15.26;99.28
57827;BME280;43656;57.746;11.780;2022-09-27T10:43:56;99254.53;;;15.48;98.94
57827;BME280;43656;57.746;11.780;2022-09-27T10:46:26;99246.09;;;15.29;97.35
57827;BME280;43656;57.746;11.780;2022-09-27T10:49:18;99259.94;;;15.38;98.13
57827;BME280;43656;57.746;11.780;2022-09-27T10:51:48;99264.03;;;15.45;98.90
57827;BME280;43656;57.746;11.780;2022-09-27T10:54:22;99240.69;;;15.29;99.00
57827;BME280;43656;57.746;11.780;2022-09-27T10:59:23;99255.34;;;15.48;98.67
57827;BME280;43656;57.746;11.780;2022-09-27T11:01:50;99260.44;;;15.19;100.00
57827;BME280;43656;57.746;11.780;2022-09-27T11:04:33;99256.66;;;15.10;100.00
57827;BME280;43656;57.746;11.780;2022-09-27T11:07:15;99255.28;;;15.08;100.00
57827;BME280;43656;57.746;11.780;2022-09-27T11:09:55;99257.47;;;15.26;100.00
57827;BME280;43656;57.746;11.780;2022-09-27T11:12:30;99252.63;;;15.38;100.00
57827;BME280;43656;57.746;11.780;2022-09-27T11:15:08;99259.16;;;15.47;100.00
57827;BME280;43656;57.746;11.780;2022-09-27T11:17:48;99255.88;;;15.30;100.00
57827;BME280;43656;57.746;11.780;2022-09-27T11:23:43;99240.16;;;15.32;100.00
57827;BME280;43656;57.746;11.780;2022-09-27T11:38:07;99266.53;;;14.74;100.00
57827;BME280;43656;57.746;11.780;2022-09-27T11:51:31;99262.28;;;14.46;100.00
57827;BME280;43656;57.746;11.780;2022-09-27T12:05:17;99248.03;;;14.50;100.00
57827;BME280;43656;57.746;11.780;2022-09-27T12:10:19;99271.09;;;14.68;100.00
57827;BME280;43656;57.746;11.780;2022-09-27T12:12:50;99265.78;;;14.41;100.00
57827;BME280;43656;57.746;11.780;2022-09-27T12:15:19;99270.22;;;14.52;100.00
57827;BME280;43656;57.746;11.780;2022-09-27T12:17:49;99217.31;;;14.34;100.00
57827;BME280;43656;57.746;11.780;2022-09-27T12:20:29;99276.19;;;14.54;100.00
57827;BME280;43656;57.746;11.780;2022-09-27T12:23:09;99269.72;;;14.66;100.00
57827;BME280;43656;57.746;11.780;2022-09-27T12:25:38;99207.63;;;14.49;100.00
57827;BME280;43656;57.746;11.780;2022-09-27T12:28:12;99265.44;;;14.75;100.00
57827;BME280;43656;57.746;11.780;2022-09-27T12:30:41;99247.50;;;14.59;100.00
57827;BME280;43656;57.746;11.780;2022-09-27T12:33:25;99283.88;;;14.78;100.00
57827;BME280;43656;57.746;11.780;2022-09-27T12:35:56;99263.31;;;14.77;100.00
57827;BME280;43656;57.746;11.780;2022-09-27T12:38:43;99281.00;;;14.47;100.00
57827;BME280;43656;57.746;11.780;2022-09-27T12:41:16;99280.06;;;14.74;100.00
57827;BME280;43656;57.746;11.780;2022-09-27T12:43:47;99225.16;;;14.31;100.00
57827;BME280;43656;57.746;11.780;2022-09-27T12:46:35;99279.22;;;14.73;100.00
57827;BME280;43656;57.746;11.780;2022-09-27T12:49:47;99283.06;;;14.83;100.00
57827;BME280;43656;57.746;11.780;2022-09-27T12:52:22;99278.88;;;14.54;100.00
57827;BME280;43656;57.746;11.780;2022-09-27T12:54:55;99281.44;;;14.34;100.00
57827;BME280;43656;57.746;11.780;2022-09-27T12:58:10;99284.88;;;14.67;100.00
57827;BME280;43656;57.746;11.780;2022-09-27T13:12:11;99266.72;;;14.20;100.00
57827;BME280;43656;57.746;11.780;2022-09-27T13:14:56;99267.22;;;14.12;100.00
57827;BME280;43656;57.746;11.780;2022-09-27T13:22:56;99273.09;;;13.98;100.00
57827;BME280;43656;57.746;11.780;2022-09-27T13:25:50;99293.38;;;14.38;100.00
57827;BME280;43656;57.746;11.780;2022-09-27T13:31:01;99294.38;;;14.69;100.00
57827;BME280;43656;57.746;11.780;2022-09-27T13:33:50;99287.59;;;14.62;100.00
57827;BME280;43656;57.746;11.780;2022-09-27T13:42:05;99299.88;;;14.85;100.00
57827;BME280;43656;57.746;11.780;2022-09-27T13:44:51;99294.84;;;14.51;100.00
57827;BME280;43656;57.746;11.780;2022-09-27T13:47:37;99276.63;;;14.46;100.00
57827;BME280;43656;57.746;11.780;2022-09-27T13:50:37;99302.16;;;14.50;100.00
57827;BME280;43656;57.746;11.780;2022-09-27T13:53:35;99274.22;;;14.50;100.00
57827;BME280;43656;57.746;11.780;2022-09-27T13:56:00;99304.13;;;14.65;100.00
57827;BME280;43656;57.746;11.780;2022-09-27T14:01:41;99297.31;;;14.63;100.00
57827;BME280;43656;57.746;11.780;2022-09-27T14:04:20;99297.03;;;14.54;100.00
57827;BME280;43656;57.746;11.780;2022-09-27T14:06:51;99257.63;;;14.31;100.00
57827;BME280;43656;57.746;11.780;2022-09-27T14:09:23;99289.59;;;14.39;100.00
57827;BME280;43656;57.746;11.780;2022-09-27T14:11:59;99283.00;;;14.25;100.00
57827;BME280;43656;57.746;11.780;2022-09-27T14:14:28;99296.41;;;14.09;100.00
57827;BME280;43656;57.746;11.780;2022-09-27T14:17:00;99248.09;;;13.86;100.00
57827;BME280;43656;57.746;11.780;2022-09-27T14:19:27;99280.53;;;14.23;100.00
57827;BME280;43656;57.746;11.780;2022-09-27T14:21:53;99284.16;;;14.39;100.00
57827;BME280;43656;57.746;11.780;2022-09-27T14:24:20;99304.78;;;14.45;100.00
57827;BME280;43656;57.746;11.780;2022-09-27T14:26:46;99307.38;;;14.30;100.00
57827;BME280;43656;57.746;11.780;2022-09-27T14:29:17;99306.91;;;14.43;100.00
57827;BME280;43656;57.746;11.780;2022-09-27T14:31:42;99304.97;;;14.33;100.00
57827;BME280;43656;57.746;11.780;2022-09-27T14:34:11;99319.91;;;14.41;100.00
57827;BME280;43656;57.746;11.780;2022-09-27T14:36:37;99316.41;;;14.46;100.00
57827;BME280;43656;57.746;11.780;2022-09-27T14:39:28;99318.72;;;14.27;100.00
57827;BME280;43656;57.746;11.780;2022-09-27T14:41:55;99305.97;;;14.22;100.00
57827;BME280;43656;57.746;11.780;2022-09-27T14:44:22;99311.75;;;14.36;100.00
57827;BME280;43656;57.746;11.780;2022-09-27T14:47:06;99304.44;;;14.37;100.00
57827;BME280;43656;57.746;11.780;2022-09-27T14:49:32;99310.47;;;14.44;100.00
57827;BME280;43656;57.746;11.780;2022-09-27T14:51:57;99318.03;;;14.47;100.00
57827;BME280;43656;57.746;11.780;2022-09-27T14:54:25;99329.72;;;14.47;100.00
57827;BME280;43656;57.746;11.780;2022-09-27T14:56:52;99286.41;;;14.10;100.00
57827;BME280;43656;57.746;11.780;2022-09-27T14:59:29;99322.34;;;14.43;100.00
57827;BME280;43656;57.746;11.780;2022-09-27T15:02:00;99324.91;;;14.22;100.00
57827;BME280;43656;57.746;11.780;2022-09-27T15:04:34;99326.22;;;14.15;100.00
57827;BME280;43656;57.746;11.780;2022-09-27T15:07:01;99264.53;;;13.79;100.00
57827;BME280;43656;57.746;11.780;2022-09-27T15:09:27;99333.69;;;14.02;100.00
57827;BME280;43656;57.746;11.780;2022-09-27T15:11:56;99325.63;;;13.80;100.00